sensor_id;sensor_type;location;lat;lon;timestamp;P1;durP1;ratioP1;P2;durP2;ratioP2
79128;SDS011;68529;43.286;23.360;2024-02-26T00:01:23;8.37;;;7.23;;
79128;SDS011;68529;43.286;23.360;2024-02-26T00:03:48;7.77;;;6.93;;
79128;SDS011;68529;43.286;23.360;2024-02-26T00:06:14;7.50;;;6.80;;
79128;SDS011;68529;43.286;23.360;2024-02-26T00:08:39;7.10;;;6.40;;
79128;SDS011;68529;43.286;23.360;2024-02-26T00:11:04;7.70;;;6.27;;
79128;SDS011;68529;43.286;23.360;2024-02-26T00:13:30;7.47;;;6.73;;
79128;SDS011;68529;43.286;23.360;2024-02-26T00:15:55;7.27;;;6.53;;
79128;SDS011;68529;43.286;23.360;2024-02-26T00:18:20;7.07;;;6.37;;
79128;SDS011;68529;43.286;23.360;2024-02-26T00:20:46;7.50;;;6.70;;
79128;SDS011;68529;43.286;23.360;2024-02-26T00:23:14;8.40;;;7.50;;
79128;SDS011;68529;43.286;23.360;2024-02-26T00:25:40;7.33;;;6.50;;
79128;SDS011;68529;43.286;23.360;2024-02-26T00:28:07;7.97;;;7.17;;
79128;SDS011;68529;43.286;23.360;2024-02-26T00:30:33;9.40;;;7.70;;
79128;SDS011;68529;43.286;23.360;2024-02-26T00:32:58;7.80;;;7.00;;
79128;SDS011;68529;43.286;23.360;2024-02-26T00:35:23;10.10;;;7.60;;
79128;SDS011;68529;43.286;23.360;2024-02-26T00:37:49;8.57;;;7.53;;
79128;SDS011;68529;43.286;23.360;2024-02-26T00:40:14;8.10;;;6.70;;
79128;SDS011;68529;43.286;23.360;2024-02-26T00:42:40;8.03;;;6.77;;
79128;SDS011;68529;43.286;23.360;2024-02-26T00:45:10;9.97;;;8.03;;
79128;SDS011;68529;43.286;23.360;2024-02-26T00:47:35;10.07;;;7.87;;
79128;SDS011;68529;43.286;23.360;2024-02-26T00:50:01;10.23;;;8.70;;
79128;SDS011;68529;43.286;23.360;2024-02-26T00:52:27;8.30;;;6.60;;
79128;SDS011;68529;43.286;23.360;2024-02-26T00:54:52;8.47;;;7.43;;
79128;SDS011;68529;43.286;23.360;2024-02-26T00:57:18;7.73;;;6.37;;
79128;SDS011;68529;43.286;23.360;2024-02-26T00:59:43;9.47;;;7.53;;
79128;SDS011;68529;43.286;23.360;2024-02-26T01:02:08;7.87;;;6.60;;
79128;SDS011;68529;43.286;23.360;2024-02-26T01:04:34;6.70;;;6.00;;
79128;SDS011;68529;43.286;23.360;2024-02-26T01:06:59;9.20;;;6.50;;
79128;SDS011;68529;43.286;23.360;2024-02-26T01:09:24;8.27;;;5.70;;
79128;SDS011;68529;43.286;23.360;2024-02-26T01:11:50;7.17;;;5.30;;
79128;SDS011;68529;43.286;23.360;2024-02-26T01:14:15;5.90;;;5.00;;
79128;SDS011;68529;43.286;23.360;2024-02-26T01:16:41;6.27;;;5.70;;
79128;SDS011;68529;43.286;23.360;2024-02-26T01:19:06;7.93;;;5.90;;
79128;SDS011;68529;43.286;23.360;2024-02-26T01:21:31;8.77;;;5.93;;
79128;SDS011;68529;43.286;23.360;2024-02-26T01:23:57;6.83;;;6.10;;
79128;SDS011;68529;43.286;23.360;2024-02-26T01:26:22;8.27;;;7.03;;
79128;SDS011;68529;43.286;23.360;2024-02-26T01:28:48;7.50;;;6.37;;
79128;SDS011;68529;43.286;23.360;2024-02-26T01:31:13;8.47;;;6.93;;
79128;SDS011;68529;43.286;23.360;2024-02-26T01:33:38;7.20;;;6.50;;
79128;SDS011;68529;43.286;23.360;2024-02-26T01:36:04;7.10;;;6.40;;
79128;SDS011;68529;43.286;23.360;2024-02-26T01:38:29;7.67;;;6.73;;
79128;SDS011;68529;43.286;23.360;2024-02-26T01:40:55;7.60;;;6.80;;
79128;SDS011;68529;43.286;23.360;2024-02-26T01:43:20;6.87;;;6.27;;
79128;SDS011;68529;43.286;23.360;2024-02-26T01:45:46;7.17;;;6.47;;
79128;SDS011;68529;43.286;23.360;2024-02-26T01:48:11;7.23;;;6.43;;
79128;SDS011;68529;43.286;23.360;2024-02-26T01:50:37;8.63;;;6.60;;
79128;SDS011;68529;43.286;23.360;2024-02-26T01:53:05;8.67;;;6.70;;
79128;SDS011;68529;43.286;23.360;2024-02-26T01:55:31;8.67;;;7.50;;
79128;SDS011;68529;43.286;23.360;2024-02-26T01:57:57;7.70;;;6.30;;
79128;SDS011;68529;43.286;23.360;2024-02-26T02:00:23;8.20;;;6.93;;
79128;SDS011;68529;43.286;23.360;2024-02-26T02:02:49;7.97;;;7.17;;
79128;SDS011;68529;43.286;23.360;2024-02-26T02:05:16;7.33;;;6.30;;
79128;SDS011;68529;43.286;23.360;2024-02-26T02:07:45;6.20;;;5.57;;
79128;SDS011;68529;43.286;23.360;2024-02-26T02:10:11;7.50;;;6.47;;
79128;SDS011;68529;43.286;23.360;2024-02-26T02:12:37;6.60;;;5.83;;
79128;SDS011;68529;43.286;23.360;2024-02-26T02:15:05;7.57;;;6.33;;
79128;SDS011;68529;43.286;23.360;2024-02-26T02:17:31;7.77;;;6.40;;
79128;SDS011;68529;43.286;23.360;2024-02-26T02:19:56;7.40;;;5.83;;
79128;SDS011;68529;43.286;23.360;2024-02-26T02:22:22;6.50;;;5.80;;
79128;SDS011;68529;43.286;23.360;2024-02-26T02:24:48;6.90;;;6.20;;
79128;SDS011;68529;43.286;23.360;2024-02-26T02:27:14;8.40;;;6.57;;
79128;SDS011;68529;43.286;23.360;2024-02-26T02:29:40;8.27;;;6.97;;
79128;SDS011;68529;43.286;23.360;2024-02-26T02:32:05;8.63;;;7.77;;
79128;SDS011;68529;43.286;23.360;2024-02-26T02:34:31;8.50;;;7.60;;
79128;SDS011;68529;43.286;23.360;2024-02-26T02:36:57;8.97;;;7.57;;
79128;SDS011;68529;43.286;23.360;2024-02-26T02:39:23;8.73;;;7.17;;
79128;SDS011;68529;43.286;23.360;2024-02-26T02:41:48;9.53;;;7.87;;
79128;SDS011;68529;43.286;23.360;2024-02-26T02:44:13;8.70;;;7.37;;
79128;SDS011;68529;43.286;23.360;2024-02-26T02:46:39;8.53;;;7.17;;
79128;SDS011;68529;43.286;23.360;2024-02-26T02:49:08;9.27;;;7.77;;
79128;SDS011;68529;43.286;23.360;2024-02-26T02:51:36;8.63;;;7.73;;
79128;SDS011;68529;43.286;23.360;2024-02-26T02:54:02;8.67;;;7.43;;
79128;SDS011;68529;43.286;23.360;2024-02-26T02:56:28;10.50;;;8.60;;
79128;SDS011;68529;43.286;23.360;2024-02-26T02:58:53;10.67;;;7.53;;
79128;SDS011;68529;43.286;23.360;2024-02-26T03:01:18;8.30;;;7.40;;
79128;SDS011;68529;43.286;23.360;2024-02-26T03:03:44;11.37;;;7.90;;
79128;SDS011;68529;43.286;23.360;2024-02-26T03:06:09;9.30;;;7.60;;
79128;SDS011;68529;43.286;23.360;2024-02-26T03:08:35;9.97;;;7.53;;
79128;SDS011;68529;43.286;23.360;2024-02-26T03:11:03;8.67;;;7.57;;
79128;SDS011;68529;43.286;23.360;2024-02-26T03:13:29;8.53;;;7.60;;
79128;SDS011;68529;43.286;23.360;2024-02-26T03:15:54;8.30;;;7.43;;
79128;SDS011;68529;43.286;23.360;2024-02-26T03:18:19;10.30;;;7.77;;
79128;SDS011;68529;43.286;23.360;2024-02-26T03:20:45;8.23;;;7.30;;
79128;SDS011;68529;43.286;23.360;2024-02-26T03:23:10;8.00;;;7.20;;
79128;SDS011;68529;43.286;23.360;2024-02-26T03:25:39;7.63;;;6.83;;
79128;SDS011;68529;43.286;23.360;2024-02-26T03:28:06;11.63;;;7.53;;
79128;SDS011;68529;43.286;23.360;2024-02-26T03:30:31;8.50;;;7.20;;
79128;SDS011;68529;43.286;23.360;2024-02-26T03:32:57;8.50;;;7.67;;
79128;SDS011;68529;43.286;23.360;2024-02-26T03:35:22;8.60;;;7.73;;
79128;SDS011;68529;43.286;23.360;2024-02-26T03:37:47;8.47;;;7.10;;
79128;SDS011;68529;43.286;23.360;2024-02-26T03:40:13;11.73;;;7.93;;
79128;SDS011;68529;43.286;23.360;2024-02-26T03:42:39;9.37;;;7.90;;
79128;SDS011;68529;43.286;23.360;2024-02-26T03:45:05;10.47;;;8.73;;
79128;SDS011;68529;43.286;23.360;2024-02-26T03:47:31;11.77;;;7.87;;
79128;SDS011;68529;43.286;23.360;2024-02-26T03:49:56;10.30;;;8.47;;
79128;SDS011;68529;43.286;23.360;2024-02-26T03:52:24;9.17;;;8.17;;
79128;SDS011;68529;43.286;23.360;2024-02-26T03:54:49;7.97;;;7.17;;
79128;SDS011;68529;43.286;23.360;2024-02-26T03:57:15;10.73;;;8.13;;
79128;SDS011;68529;43.286;23.360;2024-02-26T03:59:40;9.87;;;8.37;;
79128;SDS011;68529;43.286;23.360;2024-02-26T04:02:05;10.37;;;8.03;;
79128;SDS011;68529;43.286;23.360;2024-02-26T04:04:33;9.73;;;8.10;;
79128;SDS011;68529;43.286;23.360;2024-02-26T04:06:59;12.70;;;10.00;;
79128;SDS011;68529;43.286;23.360;2024-02-26T04:09:25;10.23;;;9.03;;
79128;SDS011;68529;43.286;23.360;2024-02-26T04:11:50;9.93;;;8.30;;
79128;SDS011;68529;43.286;23.360;2024-02-26T04:14:16;14.07;;;10.93;;
79128;SDS011;68529;43.286;23.360;2024-02-26T04:16:41;27.17;;;20.30;;
79128;SDS011;68529;43.286;23.360;2024-02-26T04:19:06;10.93;;;8.40;;
79128;SDS011;68529;43.286;23.360;2024-02-26T04:21:32;8.87;;;7.93;;
79128;SDS011;68529;43.286;23.360;2024-02-26T04:23:58;9.03;;;8.13;;
79128;SDS011;68529;43.286;23.360;2024-02-26T04:26:26;8.87;;;7.97;;
79128;SDS011;68529;43.286;23.360;2024-02-26T04:28:52;11.63;;;8.47;;
79128;SDS011;68529;43.286;23.360;2024-02-26T04:31:18;10.33;;;7.97;;
79128;SDS011;68529;43.286;23.360;2024-02-26T04:33:43;8.87;;;7.70;;
79128;SDS011;68529;43.286;23.360;2024-02-26T04:36:13;9.73;;;8.57;;
79128;SDS011;68529;43.286;23.360;2024-02-26T04:38:42;10.90;;;8.20;;
79128;SDS011;68529;43.286;23.360;2024-02-26T04:41:08;15.23;;;13.07;;
79128;SDS011;68529;43.286;23.360;2024-02-26T04:43:33;10.33;;;9.00;;
79128;SDS011;68529;43.286;23.360;2024-02-26T04:45:59;10.47;;;8.73;;
79128;SDS011;68529;43.286;23.360;2024-02-26T04:48:24;11.30;;;9.57;;
79128;SDS011;68529;43.286;23.360;2024-02-26T04:50:50;17.90;;;9.77;;
79128;SDS011;68529;43.286;23.360;2024-02-26T04:53:15;13.43;;;11.07;;
79128;SDS011;68529;43.286;23.360;2024-02-26T04:55:40;10.77;;;9.67;;
79128;SDS011;68529;43.286;23.360;2024-02-26T04:58:06;15.00;;;12.67;;
79128;SDS011;68529;43.286;23.360;2024-02-26T05:00:31;14.70;;;13.27;;
79128;SDS011;68529;43.286;23.360;2024-02-26T05:02:56;15.43;;;13.73;;
79128;SDS011;68529;43.286;23.360;2024-02-26T05:05:22;13.50;;;11.77;;
79128;SDS011;68529;43.286;23.360;2024-02-26T05:07:47;14.70;;;13.20;;
79128;SDS011;68529;43.286;23.360;2024-02-26T05:10:12;15.17;;;13.57;;
79128;SDS011;68529;43.286;23.360;2024-02-26T05:12:38;15.20;;;13.60;;
79128;SDS011;68529;43.286;23.360;2024-02-26T05:15:03;15.20;;;13.70;;
79128;SDS011;68529;43.286;23.360;2024-02-26T05:17:29;15.40;;;13.73;;
79128;SDS011;68529;43.286;23.360;2024-02-26T05:19:55;16.23;;;14.63;;
79128;SDS011;68529;43.286;23.360;2024-02-26T05:22:20;17.57;;;15.77;;
79128;SDS011;68529;43.286;23.360;2024-02-26T05:24:45;16.87;;;14.07;;
79128;SDS011;68529;43.286;23.360;2024-02-26T05:27:11;20.77;;;17.27;;
79128;SDS011;68529;43.286;23.360;2024-02-26T05:29:37;21.90;;;18.17;;
79128;SDS011;68529;43.286;23.360;2024-02-26T05:32:03;26.83;;;20.30;;
79128;SDS011;68529;43.286;23.360;2024-02-26T05:34:29;35.70;;;22.70;;
79128;SDS011;68529;43.286;23.360;2024-02-26T05:36:55;28.40;;;17.77;;
79128;SDS011;68529;43.286;23.360;2024-02-26T05:39:20;28.90;;;20.90;;
79128;SDS011;68529;43.286;23.360;2024-02-26T05:41:46;20.10;;;15.77;;
79128;SDS011;68529;43.286;23.360;2024-02-26T05:44:12;25.33;;;20.87;;
79128;SDS011;68529;43.286;23.360;2024-02-26T05:46:37;24.03;;;19.73;;
79128;SDS011;68529;43.286;23.360;2024-02-26T05:49:02;28.43;;;20.20;;
79128;SDS011;68529;43.286;23.360;2024-02-26T05:51:28;36.13;;;24.83;;
79128;SDS011;68529;43.286;23.360;2024-02-26T05:53:53;22.33;;;18.20;;
79128;SDS011;68529;43.286;23.360;2024-02-26T05:56:20;27.70;;;21.40;;
79128;SDS011;68529;43.286;23.360;2024-02-26T05:58:46;28.50;;;20.03;;
79128;SDS011;68529;43.286;23.360;2024-02-26T06:01:12;30.63;;;23.53;;
79128;SDS011;68529;43.286;23.360;2024-02-26T06:03:38;25.00;;;20.93;;
79128;SDS011;68529;43.286;23.360;2024-02-26T06:06:04;31.80;;;20.70;;
79128;SDS011;68529;43.286;23.360;2024-02-26T06:08:29;31.40;;;22.27;;
79128;SDS011;68529;43.286;23.360;2024-02-26T06:10:55;36.50;;;23.47;;
79128;SDS011;68529;43.286;23.360;2024-02-26T06:13:20;27.13;;;22.67;;
79128;SDS011;68529;43.286;23.360;2024-02-26T06:15:45;25.67;;;21.47;;
79128;SDS011;68529;43.286;23.360;2024-02-26T06:18:11;27.90;;;22.50;;
79128;SDS011;68529;43.286;23.360;2024-02-26T06:20:36;33.93;;;25.80;;
79128;SDS011;68529;43.286;23.360;2024-02-26T06:23:02;41.80;;;25.50;;
79128;SDS011;68529;43.286;23.360;2024-02-26T06:25:27;29.90;;;22.57;;
79128;SDS011;68529;43.286;23.360;2024-02-26T06:27:52;71.73;;;39.43;;
79128;SDS011;68529;43.286;23.360;2024-02-26T06:30:18;111.67;;;58.73;;
79128;SDS011;68529;43.286;23.360;2024-02-26T06:32:43;43.97;;;28.60;;
79128;SDS011;68529;43.286;23.360;2024-02-26T06:35:08;47.30;;;37.20;;
79128;SDS011;68529;43.286;23.360;2024-02-26T06:37:36;39.73;;;27.97;;
79128;SDS011;68529;43.286;23.360;2024-02-26T06:40:01;48.57;;;31.80;;
79128;SDS011;68529;43.286;23.360;2024-02-26T06:42:31;35.40;;;24.17;;
79128;SDS011;68529;43.286;23.360;2024-02-26T06:44:57;31.20;;;23.43;;
79128;SDS011;68529;43.286;23.360;2024-02-26T06:47:23;30.23;;;23.37;;
79128;SDS011;68529;43.286;23.360;2024-02-26T06:49:48;27.00;;;20.13;;
79128;SDS011;68529;43.286;23.360;2024-02-26T06:52:13;27.17;;;22.60;;
79128;SDS011;68529;43.286;23.360;2024-02-26T06:54:39;23.97;;;19.47;;
79128;SDS011;68529;43.286;23.360;2024-02-26T06:57:04;27.87;;;21.53;;
79128;SDS011;68529;43.286;23.360;2024-02-26T06:59:30;30.27;;;22.87;;
79128;SDS011;68529;43.286;23.360;2024-02-26T07:01:55;28.13;;;22.27;;
79128;SDS011;68529;43.286;23.360;2024-02-26T07:04:20;27.03;;;21.87;;
79128;SDS011;68529;43.286;23.360;2024-02-26T07:06:46;27.37;;;22.60;;
79128;SDS011;68529;43.286;23.360;2024-02-26T07:09:12;24.50;;;20.90;;
79128;SDS011;68529;43.286;23.360;2024-02-26T07:11:38;22.37;;;19.53;;
79128;SDS011;68529;43.286;23.360;2024-02-26T07:14:07;23.47;;;20.97;;
79128;SDS011;68529;43.286;23.360;2024-02-26T07:16:33;23.13;;;20.20;;
79128;SDS011;68529;43.286;23.360;2024-02-26T07:18:58;22.10;;;19.17;;
79128;SDS011;68529;43.286;23.360;2024-02-26T07:21:24;22.97;;;19.50;;
79128;SDS011;68529;43.286;23.360;2024-02-26T07:23:49;24.47;;;20.83;;
79128;SDS011;68529;43.286;23.360;2024-02-26T07:26:14;24.83;;;20.13;;
79128;SDS011;68529;43.286;23.360;2024-02-26T07:28:42;24.03;;;19.37;;
79128;SDS011;68529;43.286;23.360;2024-02-26T07:31:07;25.23;;;20.90;;
79128;SDS011;68529;43.286;23.360;2024-02-26T07:33:33;24.50;;;20.23;;
79128;SDS011;68529;43.286;23.360;2024-02-26T07:35:58;25.90;;;21.37;;
79128;SDS011;68529;43.286;23.360;2024-02-26T07:38:24;26.33;;;20.80;;
79128;SDS011;68529;43.286;23.360;2024-02-26T07:40:49;25.73;;;21.23;;
79128;SDS011;68529;43.286;23.360;2024-02-26T07:43:15;26.73;;;21.53;;
79128;SDS011;68529;43.286;23.360;2024-02-26T07:45:40;26.40;;;21.80;;
79128;SDS011;68529;43.286;23.360;2024-02-26T07:48:05;27.47;;;21.90;;
79128;SDS011;68529;43.286;23.360;2024-02-26T07:50:32;26.93;;;22.37;;
79128;SDS011;68529;43.286;23.360;2024-02-26T07:52:58;24.70;;;20.90;;
79128;SDS011;68529;43.286;23.360;2024-02-26T07:55:23;26.20;;;21.60;;
79128;SDS011;68529;43.286;23.360;2024-02-26T07:57:49;30.10;;;23.07;;
79128;SDS011;68529;43.286;23.360;2024-02-26T08:00:14;29.00;;;23.67;;
79128;SDS011;68529;43.286;23.360;2024-02-26T08:02:41;27.30;;;22.13;;
79128;SDS011;68529;43.286;23.360;2024-02-26T08:05:08;21.73;;;19.43;;
79128;SDS011;68529;43.286;23.360;2024-02-26T08:07:34;26.07;;;20.40;;
79128;SDS011;68529;43.286;23.360;2024-02-26T08:09:59;24.13;;;20.77;;
79128;SDS011;68529;43.286;23.360;2024-02-26T08:12:24;25.37;;;19.90;;
79128;SDS011;68529;43.286;23.360;2024-02-26T08:14:50;24.63;;;18.70;;
79128;SDS011;68529;43.286;23.360;2024-02-26T08:17:15;21.47;;;18.07;;
79128;SDS011;68529;43.286;23.360;2024-02-26T08:19:41;22.67;;;19.13;;
79128;SDS011;68529;43.286;23.360;2024-02-26T08:22:06;30.80;;;24.77;;
79128;SDS011;68529;43.286;23.360;2024-02-26T08:24:31;45.27;;;32.80;;
79128;SDS011;68529;43.286;23.360;2024-02-26T08:26:57;49.03;;;33.03;;
79128;SDS011;68529;43.286;23.360;2024-02-26T08:29:22;30.13;;;24.50;;
79128;SDS011;68529;43.286;23.360;2024-02-26T08:31:47;27.07;;;20.93;;
79128;SDS011;68529;43.286;23.360;2024-02-26T08:34:13;24.10;;;19.70;;
79128;SDS011;68529;43.286;23.360;2024-02-26T08:36:39;42.70;;;31.60;;
79128;SDS011;68529;43.286;23.360;2024-02-26T08:39:04;46.33;;;32.80;;
79128;SDS011;68529;43.286;23.360;2024-02-26T08:41:30;27.93;;;23.53;;
79128;SDS011;68529;43.286;23.360;2024-02-26T08:43:55;60.10;;;43.33;;
79128;SDS011;68529;43.286;23.360;2024-02-26T08:46:23;34.10;;;26.47;;
79128;SDS011;68529;43.286;23.360;2024-02-26T08:48:48;23.30;;;18.53;;
79128;SDS011;68529;43.286;23.360;2024-02-26T08:51:14;24.10;;;18.83;;
79128;SDS011;68529;43.286;23.360;2024-02-26T08:53:39;21.23;;;17.90;;
79128;SDS011;68529;43.286;23.360;2024-02-26T08:56:05;22.27;;;17.57;;
79128;SDS011;68529;43.286;23.360;2024-02-26T08:58:31;21.67;;;18.67;;
79128;SDS011;68529;43.286;23.360;2024-02-26T09:00:56;21.90;;;19.60;;
79128;SDS011;68529;43.286;23.360;2024-02-26T09:03:22;22.20;;;19.30;;
79128;SDS011;68529;43.286;23.360;2024-02-26T09:05:47;34.93;;;23.90;;
79128;SDS011;68529;43.286;23.360;2024-02-26T09:08:13;23.77;;;19.37;;
79128;SDS011;68529;43.286;23.360;2024-02-26T09:10:39;17.93;;;16.03;;
79128;SDS011;68529;43.286;23.360;2024-02-26T09:13:05;24.73;;;18.83;;
79128;SDS011;68529;43.286;23.360;2024-02-26T09:15:30;19.80;;;17.70;;
79128;SDS011;68529;43.286;23.360;2024-02-26T09:17:56;22.10;;;19.53;;
79128;SDS011;68529;43.286;23.360;2024-02-26T09:20:21;26.63;;;20.60;;
79128;SDS011;68529;43.286;23.360;2024-02-26T09:22:47;25.90;;;20.77;;
79128;SDS011;68529;43.286;23.360;2024-02-26T09:25:13;29.37;;;22.10;;
79128;SDS011;68529;43.286;23.360;2024-02-26T09:27:41;24.50;;;21.57;;
79128;SDS011;68529;43.286;23.360;2024-02-26T09:30:08;28.13;;;21.57;;
79128;SDS011;68529;43.286;23.360;2024-02-26T09:50:46;27.57;;;23.87;;
79128;SDS011;68529;43.286;23.360;2024-02-26T09:53:12;26.13;;;22.07;;
79128;SDS011;68529;43.286;23.360;2024-02-26T09:55:39;28.80;;;22.47;;
79128;SDS011;68529;43.286;23.360;2024-02-26T09:58:05;29.40;;;21.77;;
79128;SDS011;68529;43.286;23.360;2024-02-26T10:00:31;22.27;;;19.23;;
79128;SDS011;68529;43.286;23.360;2024-02-26T10:03:03;23.67;;;20.57;;
79128;SDS011;68529;43.286;23.360;2024-02-26T10:05:30;23.87;;;20.63;;
79128;SDS011;68529;43.286;23.360;2024-02-26T10:07:57;25.70;;;21.17;;
79128;SDS011;68529;43.286;23.360;2024-02-26T10:10:23;24.83;;;21.63;;
79128;SDS011;68529;43.286;23.360;2024-02-26T10:12:49;26.50;;;22.67;;
79128;SDS011;68529;43.286;23.360;2024-02-26T10:15:14;26.87;;;21.93;;
79128;SDS011;68529;43.286;23.360;2024-02-26T10:17:40;25.17;;;21.77;;
79128;SDS011;68529;43.286;23.360;2024-02-26T10:20:18;22.93;;;20.53;;
79128;SDS011;68529;43.286;23.360;2024-02-26T10:22:46;23.17;;;19.70;;
79128;SDS011;68529;43.286;23.360;2024-02-26T10:25:12;24.50;;;20.47;;
79128;SDS011;68529;43.286;23.360;2024-02-26T10:27:39;23.67;;;20.67;;
79128;SDS011;68529;43.286;23.360;2024-02-26T10:30:21;25.73;;;20.33;;
79128;SDS011;68529;43.286;23.360;2024-02-26T10:32:48;20.30;;;18.07;;
79128;SDS011;68529;43.286;23.360;2024-02-26T10:35:16;22.93;;;18.47;;
79128;SDS011;68529;43.286;23.360;2024-02-26T10:37:43;21.83;;;18.57;;
79128;SDS011;68529;43.286;23.360;2024-02-26T10:40:12;21.33;;;19.03;;
79128;SDS011;68529;43.286;23.360;2024-02-26T10:42:38;24.00;;;19.80;;
79128;SDS011;68529;43.286;23.360;2024-02-26T10:45:07;33.47;;;20.83;;
79128;SDS011;68529;43.286;23.360;2024-02-26T10:47:37;46.57;;;31.70;;
79128;SDS011;68529;43.286;23.360;2024-02-26T10:50:03;24.97;;;20.77;;
79128;SDS011;68529;43.286;23.360;2024-02-26T10:52:33;23.07;;;19.93;;
79128;SDS011;68529;43.286;23.360;2024-02-26T10:55:01;22.20;;;18.37;;
79128;SDS011;68529;43.286;23.360;2024-02-26T10:57:29;22.30;;;19.90;;
79128;SDS011;68529;43.286;23.360;2024-02-26T10:59:59;27.87;;;19.30;;
79128;SDS011;68529;43.286;23.360;2024-02-26T11:02:26;20.30;;;18.20;;
79128;SDS011;68529;43.286;23.360;2024-02-26T11:04:52;21.90;;;17.60;;
79128;SDS011;68529;43.286;23.360;2024-02-26T11:07:18;20.20;;;18.07;;
79128;SDS011;68529;43.286;23.360;2024-02-26T11:09:45;19.67;;;17.60;;
79128;SDS011;68529;43.286;23.360;2024-02-26T11:12:17;24.10;;;19.20;;
79128;SDS011;68529;43.286;23.360;2024-02-26T11:14:44;17.77;;;15.97;;
79128;SDS011;68529;43.286;23.360;2024-02-26T11:17:11;23.63;;;18.53;;
79128;SDS011;68529;43.286;23.360;2024-02-26T11:19:38;20.57;;;18.00;;
79128;SDS011;68529;43.286;23.360;2024-02-26T11:22:05;18.70;;;16.70;;
79128;SDS011;68529;43.286;23.360;2024-02-26T11:24:32;20.90;;;17.30;;
79128;SDS011;68529;43.286;23.360;2024-02-26T11:26:58;18.37;;;16.37;;
79128;SDS011;68529;43.286;23.360;2024-02-26T11:29:33;20.23;;;17.90;;
79128;SDS011;68529;43.286;23.360;2024-02-26T11:32:03;19.70;;;17.70;;
79128;SDS011;68529;43.286;23.360;2024-02-26T11:34:28;18.83;;;16.83;;
79128;SDS011;68529;43.286;23.360;2024-02-26T11:36:54;17.17;;;15.43;;
79128;SDS011;68529;43.286;23.360;2024-02-26T11:39:21;17.80;;;16.00;;
79128;SDS011;68529;43.286;23.360;2024-02-26T11:41:47;19.67;;;15.87;;
79128;SDS011;68529;43.286;23.360;2024-02-26T11:44:12;19.10;;;16.43;;
79128;SDS011;68529;43.286;23.360;2024-02-26T11:46:41;21.27;;;17.30;;
79128;SDS011;68529;43.286;23.360;2024-02-26T11:51:52;18.23;;;16.33;;
79128;SDS011;68529;43.286;23.360;2024-02-26T11:57:03;19.63;;;16.23;;
79128;SDS011;68529;43.286;23.360;2024-02-26T11:59:38;23.00;;;17.97;;
79128;SDS011;68529;43.286;23.360;2024-02-26T12:02:04;28.43;;;18.27;;
79128;SDS011;68529;43.286;23.360;2024-02-26T12:04:30;20.30;;;18.00;;
79128;SDS011;68529;43.286;23.360;2024-02-26T12:09:32;25.27;;;20.23;;
79128;SDS011;68529;43.286;23.360;2024-02-26T12:12:05;34.67;;;20.57;;
79128;SDS011;68529;43.286;23.360;2024-02-26T12:14:39;27.43;;;20.17;;
79128;SDS011;68529;43.286;23.360;2024-02-26T12:17:19;22.37;;;17.93;;
79128;SDS011;68529;43.286;23.360;2024-02-26T12:19:49;23.97;;;18.30;;
79128;SDS011;68529;43.286;23.360;2024-02-26T12:22:15;19.67;;;16.73;;
79128;SDS011;68529;43.286;23.360;2024-02-26T12:24:44;19.70;;;17.50;;
79128;SDS011;68529;43.286;23.360;2024-02-26T12:27:10;25.43;;;17.43;;
79128;SDS011;68529;43.286;23.360;2024-02-26T12:29:35;20.50;;;17.80;;
79128;SDS011;68529;43.286;23.360;2024-02-26T12:32:01;19.43;;;17.33;;
79128;SDS011;68529;43.286;23.360;2024-02-26T12:34:28;20.00;;;17.83;;
79128;SDS011;68529;43.286;23.360;2024-02-26T12:36:54;19.87;;;17.47;;
79128;SDS011;68529;43.286;23.360;2024-02-26T12:39:19;21.80;;;19.50;;
79128;SDS011;68529;43.286;23.360;2024-02-26T12:41:45;25.20;;;19.70;;
79128;SDS011;68529;43.286;23.360;2024-02-26T12:44:15;23.07;;;19.60;;
79128;SDS011;68529;43.286;23.360;2024-02-26T12:46:41;21.83;;;17.83;;
79128;SDS011;68529;43.286;23.360;2024-02-26T12:49:06;21.43;;;18.10;;
79128;SDS011;68529;43.286;23.360;2024-02-26T12:51:33;23.10;;;19.47;;
79128;SDS011;68529;43.286;23.360;2024-02-26T12:53:58;22.30;;;19.77;;
79128;SDS011;68529;43.286;23.360;2024-02-26T12:56:24;19.37;;;17.37;;
79128;SDS011;68529;43.286;23.360;2024-02-26T12:58:51;20.93;;;18.70;;
79128;SDS011;68529;43.286;23.360;2024-02-26T13:01:18;21.10;;;18.47;;
79128;SDS011;68529;43.286;23.360;2024-02-26T13:03:47;24.87;;;20.03;;
79128;SDS011;68529;43.286;23.360;2024-02-26T13:06:14;23.43;;;21.00;;
79128;SDS011;68529;43.286;23.360;2024-02-26T13:08:39;20.97;;;18.77;;
79128;SDS011;68529;43.286;23.360;2024-02-26T13:11:05;20.53;;;18.37;;
79128;SDS011;68529;43.286;23.360;2024-02-26T13:13:31;24.23;;;20.80;;
79128;SDS011;68529;43.286;23.360;2024-02-26T13:16:05;23.17;;;20.77;;
79128;SDS011;68529;43.286;23.360;2024-02-26T13:18:33;22.53;;;19.33;;
79128;SDS011;68529;43.286;23.360;2024-02-26T13:21:09;21.03;;;18.10;;
79128;SDS011;68529;43.286;23.360;2024-02-26T13:23:35;27.93;;;19.20;;
79128;SDS011;68529;43.286;23.360;2024-02-26T13:26:01;22.97;;;19.50;;
79128;SDS011;68529;43.286;23.360;2024-02-26T13:28:26;21.70;;;19.40;;
79128;SDS011;68529;43.286;23.360;2024-02-26T13:30:55;18.87;;;16.97;;
79128;SDS011;68529;43.286;23.360;2024-02-26T13:33:22;21.27;;;18.97;;
79128;SDS011;68529;43.286;23.360;2024-02-26T13:35:48;23.90;;;19.87;;
79128;SDS011;68529;43.286;23.360;2024-02-26T13:38:14;23.90;;;20.80;;
79128;SDS011;68529;43.286;23.360;2024-02-26T13:40:39;23.03;;;19.93;;
79128;SDS011;68529;43.286;23.360;2024-02-26T13:43:05;26.20;;;20.67;;
79128;SDS011;68529;43.286;23.360;2024-02-26T13:45:30;22.97;;;19.33;;
79128;SDS011;68529;43.286;23.360;2024-02-26T13:48:01;21.60;;;18.43;;
79128;SDS011;68529;43.286;23.360;2024-02-26T13:50:28;26.27;;;22.67;;
79128;SDS011;68529;43.286;23.360;2024-02-26T13:52:53;26.07;;;23.27;;
79128;SDS011;68529;43.286;23.360;2024-02-26T13:55:21;25.40;;;21.23;;
79128;SDS011;68529;43.286;23.360;2024-02-26T13:57:47;27.10;;;21.50;;
79128;SDS011;68529;43.286;23.360;2024-02-26T14:00:13;23.10;;;20.03;;
79128;SDS011;68529;43.286;23.360;2024-02-26T14:02:39;24.80;;;19.73;;
79128;SDS011;68529;43.286;23.360;2024-02-26T14:05:04;22.13;;;19.10;;
79128;SDS011;68529;43.286;23.360;2024-02-26T14:07:30;22.30;;;19.23;;
79128;SDS011;68529;43.286;23.360;2024-02-26T14:09:57;21.80;;;19.40;;
79128;SDS011;68529;43.286;23.360;2024-02-26T14:12:23;22.67;;;19.93;;
79128;SDS011;68529;43.286;23.360;2024-02-26T14:14:48;22.60;;;19.87;;
79128;SDS011;68529;43.286;23.360;2024-02-26T14:17:14;21.07;;;18.70;;
79128;SDS011;68529;43.286;23.360;2024-02-26T14:19:40;21.90;;;19.67;;
79128;SDS011;68529;43.286;23.360;2024-02-26T14:22:10;21.87;;;19.50;;
79128;SDS011;68529;43.286;23.360;2024-02-26T14:24:36;23.03;;;20.53;;
79128;SDS011;68529;43.286;23.360;2024-02-26T14:27:02;23.27;;;20.70;;
79128;SDS011;68529;43.286;23.360;2024-02-26T14:29:27;25.30;;;20.90;;
79128;SDS011;68529;43.286;23.360;2024-02-26T14:31:53;26.60;;;21.37;;
79128;SDS011;68529;43.286;23.360;2024-02-26T14:34:18;23.57;;;20.73;;
79128;SDS011;68529;43.286;23.360;2024-02-26T14:36:44;22.80;;;20.27;;